sensor_id;sensor_type;location;lat;lon;timestamp;temperature;humidity
22360;DHT22;71759;52.034;4.706;2023-07-29T08:25:28;20.00;99.90
22360;DHT22;71759;52.034;4.706;2023-07-29T08:27:54;20.30;99.90
22360;DHT22;71759;52.034;4.706;2023-07-29T08:30:19;20.60;99.90
22360;DHT22;71759;52.034;4.706;2023-07-29T08:32:45;20.90;99.90
22360;DHT22;71759;52.034;4.706;2023-07-29T08:35:10;21.10;96.70
22360;DHT22;71759;52.034;4.706;2023-07-29T08:37:36;21.30;96.40
22360;DHT22;71759;52.034;4.706;2023-07-29T08:40:02;21.40;95.80
22360;DHT22;71759;52.034;4.706;2023-07-29T08:42:31;21.40;95.60
22360;DHT22;71759;52.034;4.706;2023-07-29T08:45:06;21.50;94.40
22360;DHT22;71759;52.034;4.706;2023-07-29T08:47:33;21.50;93.80
22360;DHT22;71759;52.034;4.706;2023-07-29T08:49:59;21.60;94.20
22360;DHT22;71759;52.034;4.706;2023-07-29T08:52:26;21.50;94.50
22360;DHT22;71759;52.034;4.706;2023-07-29T08:54:52;21.40;95.20
22360;DHT22;71759;52.034;4.706;2023-07-29T08:57:19;21.30;96.70
22360;DHT22;71759;52.034;4.706;2023-07-29T08:59:45;21.30;97.60
22360;DHT22;71759;52.034;4.706;2023-07-29T09:02:11;21.20;98.50
22360;DHT22;71759;52.034;4.706;2023-07-29T09:04:37;21.20;99.50
22360;DHT22;71759;52.034;4.706;2023-07-29T09:07:03;21.20;99.90
22360;DHT22;71759;52.034;4.706;2023-07-29T09:09:29;21.10;99.90
22360;DHT22;71759;52.034;4.706;2023-07-29T09:11:55;21.10;99.90
22360;DHT22;71759;52.034;4.706;2023-07-29T09:14:21;21.20;99.90
22360;DHT22;71759;52.034;4.706;2023-07-29T09:16:46;21.30;99.90
22360;DHT22;71759;52.034;4.706;2023-07-29T09:19:12;21.30;99.90
22360;DHT22;71759;52.034;4.706;2023-07-29T09:21:42;21.40;99.90
22360;DHT22;71759;52.034;4.706;2023-07-29T09:24:08;21.40;99.90
22360;DHT22;71759;52.034;4.706;2023-07-29T09:26:34;21.40;99.90
22360;DHT22;71759;52.034;4.706;2023-07-29T09:29:00;21.40;99.90
22360;DHT22;71759;52.034;4.706;2023-07-29T09:31:27;21.50;99.90
22360;DHT22;71759;52.034;4.706;2023-07-29T09:33:57;21.50;99.90
22360;DHT22;71759;52.034;4.706;2023-07-29T09:36:24;21.50;99.90
22360;DHT22;71759;52.034;4.706;2023-07-29T09:38:53;21.50;99.90
22360;DHT22;71759;52.034;4.706;2023-07-29T09:41:19;21.60;99.90
22360;DHT22;71759;52.034;4.706;2023-07-29T09:43:44;21.50;99.90
22360;DHT22;71759;52.034;4.706;2023-07-29T09:46:10;21.50;99.90
22360;DHT22;71759;52.034;4.706;2023-07-29T09:48:36;21.50;99.90
22360;DHT22;71759;52.034;4.706;2023-07-29T09:51:15;21.50;99.90
22360;DHT22;71759;52.034;4.706;2023-07-29T09:53:45;21.70;99.90
22360;DHT22;71759;52.034;4.706;2023-07-29T09:56:12;21.80;97.90
22360;DHT22;71759;52.034;4.706;2023-07-29T09:58:38;21.80;96.80
22360;DHT22;71759;52.034;4.706;2023-07-29T10:01:07;21.90;97.70
22360;DHT22;71759;52.034;4.706;2023-07-29T10:03:34;21.90;99.00
22360;DHT22;71759;52.034;4.706;2023-07-29T10:06:02;21.90;99.90
22360;DHT22;71759;52.034;4.706;2023-07-29T10:08:30;21.70;99.90
22360;DHT22;71759;52.034;4.706;2023-07-29T10:10:59;21.60;99.90
22360;DHT22;71759;52.034;4.706;2023-07-29T10:13:26;21.50;99.90
22360;DHT22;71759;52.034;4.706;2023-07-29T10:15:53;21.50;99.90
22360;DHT22;71759;52.034;4.706;2023-07-29T10:18:20;21.40;99.90
22360;DHT22;71759;52.034;4.706;2023-07-29T10:20:48;21.40;99.90
22360;DHT22;71759;52.034;4.706;2023-07-29T10:23:17;21.30;99.90
22360;DHT22;71759;52.034;4.706;2023-07-29T10:25:49;21.30;99.90
22360;DHT22;71759;52.034;4.706;2023-07-29T10:28:20;21.10;99.90
22360;DHT22;71759;52.034;4.706;2023-07-29T10:30:50;20.90;99.90
22360;DHT22;71759;52.034;4.706;2023-07-29T10:33:16;20.80;99.90
22360;DHT22;71759;52.034;4.706;2023-07-29T10:35:42;20.70;99.90
22360;DHT22;71759;52.034;4.706;2023-07-29T10:38:08;20.60;99.90
22360;DHT22;71759;52.034;4.706;2023-07-29T10:40:45;20.40;99.90
22360;DHT22;71759;52.034;4.706;2023-07-29T10:43:11;20.30;99.90
22360;DHT22;71759;52.034;4.706;2023-07-29T10:45:38;20.20;99.90
22360;DHT22;71759;52.034;4.706;2023-07-29T10:48:11;20.10;99.90
22360;DHT22;71759;52.034;4.706;2023-07-29T10:50:36;20.00;99.90
22360;DHT22;71759;52.034;4.706;2023-07-29T10:53:02;19.90;99.90
22360;DHT22;71759;52.034;4.706;2023-07-29T10:55:32;19.70;99.90
22360;DHT22;71759;52.034;4.706;2023-07-29T10:58:25;19.60;99.90
22360;DHT22;71759;52.034;4.706;2023-07-29T11:00:50;19.50;99.90
22360;DHT22;71759;52.034;4.706;2023-07-29T11:03:16;19.40;99.90
22360;DHT22;71759;52.034;4.706;2023-07-29T11:05:43;19.40;99.90
22360;DHT22;71759;52.034;4.706;2023-07-29T11:08:30;19.40;99.90
22360;DHT22;71759;52.034;4.706;2023-07-29T11:11:02;19.40;99.90
22360;DHT22;71759;52.034;4.706;2023-07-29T11:13:30;19.40;99.90
22360;DHT22;71759;52.034;4.706;2023-07-29T11:15:55;19.40;99.90
22360;DHT22;71759;52.034;4.706;2023-07-29T11:18:27;19.50;99.90
22360;DHT22;71759;52.034;4.706;2023-07-29T11:20:54;19.70;99.90
22360;DHT22;71759;52.034;4.706;2023-07-29T11:23:19;20.00;99.90
22360;DHT22;71759;52.034;4.706;2023-07-29T11:25:45;20.20;99.90
22360;DHT22;71759;52.034;4.706;2023-07-29T11:28:11;20.30;99.90
22360;DHT22;71759;52.034;4.706;2023-07-29T11:30:39;20.40;99.90
22360;DHT22;71759;52.034;4.706;2023-07-29T11:33:05;20.50;99.90
22360;DHT22;71759;52.034;4.706;2023-07-29T11:35:32;20.60;99.90
22360;DHT22;71759;52.034;4.706;2023-07-29T11:37:57;20.90;99.90
22360;DHT22;71759;52.034;4.706;2023-07-29T11:40:23;21.00;99.90
22360;DHT22;71759;52.034;4.706;2023-07-29T11:42:50;21.10;99.90
22360;DHT22;71759;52.034;4.706;2023-07-29T11:45:16;21.20;99.90
22360;DHT22;71759;52.034;4.706;2023-07-29T11:47:42;21.40;99.90
22360;DHT22;71759;52.034;4.706;2023-07-29T11:50:10;21.20;99.90
22360;DHT22;71759;52.034;4.706;2023-07-29T11:52:40;21.10;99.90
22360;DHT22;71759;52.034;4.706;2023-07-29T11:55:07;21.00;99.90
22360;DHT22;71759;52.034;4.706;2023-07-29T11:57:35;21.10;99.90
22360;DHT22;71759;52.034;4.706;2023-07-29T12:00:09;21.00;99.90
22360;DHT22;71759;52.034;4.706;2023-07-29T12:02:40;20.90;99.90
22360;DHT22;71759;52.034;4.706;2023-07-29T12:05:07;20.90;99.90
22360;DHT22;71759;52.034;4.706;2023-07-29T12:07:34;20.90;99.90
22360;DHT22;71759;52.034;4.706;2023-07-29T12:09:59;21.00;99.90
22360;DHT22;71759;52.034;4.706;2023-07-29T12:12:28;21.00;99.90
22360;DHT22;71759;52.034;4.706;2023-07-29T12:14:54;21.00;99.90
22360;DHT22;71759;52.034;4.706;2023-07-29T12:17:20;21.10;99.90
22360;DHT22;71759;52.034;4.706;2023-07-29T12:19:45;21.40;99.90
22360;DHT22;71759;52.034;4.706;2023-07-29T12:22:11;21.60;99.90
22360;DHT22;71759;52.034;4.706;2023-07-29T12:24:38;22.00;99.90
22360;DHT22;71759;52.034;4.706;2023-07-29T12:27:04;22.50;99.90
22360;DHT22;71759;52.034;4.706;2023-07-29T12:29:30;22.90;99.90
22360;DHT22;71759;52.034;4.706;2023-07-29T12:32:03;23.10;96.20
22360;DHT22;71759;52.034;4.706;2023-07-29T12:34:30;23.40;97.90
22360;DHT22;71759;52.034;4.706;2023-07-29T12:36:58;23.90;94.80
22360;DHT22;71759;52.034;4.706;2023-07-29T12:39:27;24.70;92.80
22360;DHT22;71759;52.034;4.706;2023-07-29T12:41:54;25.00;88.00
22360;DHT22;71759;52.034;4.706;2023-07-29T12:44:23;24.70;87.30
22360;DHT22;71759;52.034;4.706;2023-07-29T12:46:48;24.50;90.80
22360;DHT22;71759;52.034;4.706;2023-07-29T12:49:14;24.60;91.40
22360;DHT22;71759;52.034;4.706;2023-07-29T12:51:40;25.10;86.40
22360;DHT22;71759;52.034;4.706;2023-07-29T12:54:05;25.50;80.70
22360;DHT22;71759;52.034;4.706;2023-07-29T12:56:32;26.20;79.00
22360;DHT22;71759;52.034;4.706;2023-07-29T12:58:58;27.30;70.90
22360;DHT22;71759;52.034;4.706;2023-07-29T13:01:24;28.20;64.70
22360;DHT22;71759;52.034;4.706;2023-07-29T13:03:50;28.60;63.10
22360;DHT22;71759;52.034;4.706;2023-07-29T13:06:16;29.20;62.20
22360;DHT22;71759;52.034;4.706;2023-07-29T13:08:42;29.70;57.60
22360;DHT22;71759;52.034;4.706;2023-07-29T13:11:08;30.40;54.20
22360;DHT22;71759;52.034;4.706;2023-07-29T13:13:34;30.70;47.10
22360;DHT22;71759;52.034;4.706;2023-07-29T13:16:00;30.70;43.40
22360;DHT22;71759;52.034;4.706;2023-07-29T13:18:26;30.90;42.90
22360;DHT22;71759;52.034;4.706;2023-07-29T13:20:52;30.70;41.60
22360;DHT22;71759;52.034;4.706;2023-07-29T13:23:17;30.60;41.20
22360;DHT22;71759;52.034;4.706;2023-07-29T13:25:43;30.80;39.10
22360;DHT22;71759;52.034;4.706;2023-07-29T13:28:12;30.20;40.40
22360;DHT22;71759;52.034;4.706;2023-07-29T13:30:40;30.00;42.80
22360;DHT22;71759;52.034;4.706;2023-07-29T13:33:07;30.20;39.80
22360;DHT22;71759;52.034;4.706;2023-07-29T13:35:32;30.30;41.00
22360;DHT22;71759;52.034;4.706;2023-07-29T13:37:58;31.10;38.70
22360;DHT22;71759;52.034;4.706;2023-07-29T13:40:23;31.70;34.20
22360;DHT22;71759;52.034;4.706;2023-07-29T13:42:49;32.10;34.10
22360;DHT22;71759;52.034;4.706;2023-07-29T13:45:15;31.90;31.90
22360;DHT22;71759;52.034;4.706;2023-07-29T13:47:40;31.60;32.60
22360;DHT22;71759;52.034;4.706;2023-07-29T13:50:06;32.10;31.50
22360;DHT22;71759;52.034;4.706;2023-07-29T13:52:36;31.20;32.30
22360;DHT22;71759;52.034;4.706;2023-07-29T13:55:02;30.80;32.20
22360;DHT22;71759;52.034;4.706;2023-07-29T13:57:27;29.70;34.50
22360;DHT22;71759;52.034;4.706;2023-07-29T13:59:53;29.10;37.00
22360;DHT22;71759;52.034;4.706;2023-07-29T14:02:18;28.40;39.30
22360;DHT22;71759;52.034;4.706;2023-07-29T14:04:44;27.50;42.80
22360;DHT22;71759;52.034;4.706;2023-07-29T14:07:09;27.00;45.50
22360;DHT22;71759;52.034;4.706;2023-07-29T14:09:35;26.70;47.10
22360;DHT22;71759;52.034;4.706;2023-07-29T14:12:00;26.10;47.80
22360;DHT22;71759;52.034;4.706;2023-07-29T14:14:26;25.70;50.90
22360;DHT22;71759;52.034;4.706;2023-07-29T14:16:51;25.40;54.00
22360;DHT22;71759;52.034;4.706;2023-07-29T14:19:18;25.20;53.90
22360;DHT22;71759;52.034;4.706;2023-07-29T14:21:43;25.10;55.20
22360;DHT22;71759;52.034;4.706;2023-07-29T14:24:09;25.00;57.60
22360;DHT22;71759;52.034;4.706;2023-07-29T14:26:34;24.80;55.90
22360;DHT22;71759;52.034;4.706;2023-07-29T14:29:00;24.50;56.80
22360;DHT22;71759;52.034;4.706;2023-07-29T14:31:25;24.30;58.40
22360;DHT22;71759;52.034;4.706;2023-07-29T14:33:51;24.20;61.00
22360;DHT22;71759;52.034;4.706;2023-07-29T14:36:16;24.30;62.00
22360;DHT22;71759;52.034;4.706;2023-07-29T14:38:42;24.30;60.70
22360;DHT22;71759;52.034;4.706;2023-07-29T14:41:08;24.30;60.20
22360;DHT22;71759;52.034;4.706;2023-07-29T14:43:34;24.40;61.00
22360;DHT22;71759;52.034;4.706;2023-07-29T14:46:00;24.30;59.90
22360;DHT22;71759;52.034;4.706;2023-07-29T14:48:25;24.10;60.60
22360;DHT22;71759;52.034;4.706;2023-07-29T14:50:51;24.00;59.80
22360;DHT22;71759;52.034;4.706;2023-07-29T14:53:17;23.80;60.70
22360;DHT22;71759;52.034;4.706;2023-07-29T14:55:42;23.60;61.70
22360;DHT22;71759;52.034;4.706;2023-07-29T14:58:08;23.50;62.10
22360;DHT22;71759;52.034;4.706;2023-07-29T15:00:33;23.50;64.10
22360;DHT22;71759;52.034;4.706;2023-07-29T15:02:59;23.50;63.50
22360;DHT22;71759;52.034;4.706;2023-07-29T15:05:24;23.40;64.60
22360;DHT22;71759;52.034;4.706;2023-07-29T15:07:50;23.40;64.50
22360;DHT22;71759;52.034;4.706;2023-07-29T15:10:16;23.40;65.50
22360;DHT22;71759;52.034;4.706;2023-07-29T15:12:42;23.50;65.40
22360;DHT22;71759;52.034;4.706;2023-07-29T15:15:09;23.50;66.90
22360;DHT22;71759;52.034;4.706;2023-07-29T15:17:35;23.50;65.50
22360;DHT22;71759;52.034;4.706;2023-07-29T15:20:01;23.50;67.00
22360;DHT22;71759;52.034;4.706;2023-07-29T15:22:28;23.30;67.60
22360;DHT22;71759;52.034;4.706;2023-07-29T15:24:53;23.20;67.90
22360;DHT22;71759;52.034;4.706;2023-07-29T15:27:19;23.00;69.40
22360;DHT22;71759;52.034;4.706;2023-07-29T15:29:45;23.00;71.40
22360;DHT22;71759;52.034;4.706;2023-07-29T15:32:10;23.00;73.80
22360;DHT22;71759;52.034;4.706;2023-07-29T15:34:36;23.00;74.80
22360;DHT22;71759;52.034;4.706;2023-07-29T15:37:02;23.00;74.90
22360;DHT22;71759;52.034;4.706;2023-07-29T15:39:28;23.00;73.10
22360;DHT22;71759;52.034;4.706;2023-07-29T15:41:54;22.90;71.00
22360;DHT22;71759;52.034;4.706;2023-07-29T15:44:19;22.80;71.10
22360;DHT22;71759;52.034;4.706;2023-07-29T15:46:45;22.70;72.20
22360;DHT22;71759;52.034;4.706;2023-07-29T15:49:11;22.70;72.90
22360;DHT22;71759;52.034;4.706;2023-07-29T15:51:36;22.80;74.50
22360;DHT22;71759;52.034;4.706;2023-07-29T15:54:02;22.90;74.50
22360;DHT22;71759;52.034;4.706;2023-07-29T15:56:28;23.00;76.30
22360;DHT22;71759;52.034;4.706;2023-07-29T15:58:54;23.10;74.30
22360;DHT22;71759;52.034;4.706;2023-07-29T16:01:23;23.10;74.10
22360;DHT22;71759;52.034;4.706;2023-07-29T16:03:49;23.20;72.60
22360;DHT22;71759;52.034;4.706;2023-07-29T16:06:14;23.10;70.80
22360;DHT22;71759;52.034;4.706;2023-07-29T16:08:40;23.10;69.50
22360;DHT22;71759;52.034;4.706;2023-07-29T16:11:06;23.10;67.60
22360;DHT22;71759;52.034;4.706;2023-07-29T16:13:31;23.10;66.40
22360;DHT22;71759;52.034;4.706;2023-07-29T16:15:57;23.10;67.00
22360;DHT22;71759;52.034;4.706;2023-07-29T16:18:24;23.10;66.60
22360;DHT22;71759;52.034;4.706;2023-07-29T16:20:49;23.10;64.50
22360;DHT22;71759;52.034;4.706;2023-07-29T16:23:15;23.10;65.00
22360;DHT22;71759;52.034;4.706;2023-07-29T16:25:41;23.10;64.00
22360;DHT22;71759;52.034;4.706;2023-07-29T16:28:06;23.10;64.00
22360;DHT22;71759;52.034;4.706;2023-07-29T16:30:32;23.00;63.60
22360;DHT22;71759;52.034;4.706;2023-07-29T16:32:58;23.00;63.00
22360;DHT22;71759;52.034;4.706;2023-07-29T16:35:24;23.00;63.30
22360;DHT22;71759;52.034;4.706;2023-07-29T16:37:50;23.00;62.70
22360;DHT22;71759;52.034;4.706;2023-07-29T16:40:16;22.90;61.70
22360;DHT22;71759;52.034;4.706;2023-07-29T16:42:41;22.90;60.00
22360;DHT22;71759;52.034;4.706;2023-07-29T16:45:07;22.80;59.90
22360;DHT22;71759;52.034;4.706;2023-07-29T16:47:33;22.70;58.20
22360;DHT22;71759;52.034;4.706;2023-07-29T16:49:59;22.70;59.00
22360;DHT22;71759;52.034;4.706;2023-07-29T16:52:25;22.60;57.60
22360;DHT22;71759;52.034;4.706;2023-07-29T16:54:50;22.70;57.20
22360;DHT22;71759;52.034;4.706;2023-07-29T16:57:16;22.60;54.80
22360;DHT22;71759;52.034;4.706;2023-07-29T16:59:41;22.60;51.10
22360;DHT22;71759;52.034;4.706;2023-07-29T17:02:07;22.50;50.90
22360;DHT22;71759;52.034;4.706;2023-07-29T17:04:33;22.50;51.00
22360;DHT22;71759;52.034;4.706;2023-07-29T17:06:58;22.50;51.00
22360;DHT22;71759;52.034;4.706;2023-07-29T17:09:24;22.40;50.90
22360;DHT22;71759;52.034;4.706;2023-07-29T17:11:49;22.40;50.80
